Terminal Aerodrome Forecast
Issued by NWS

Home | Current Version | Previous Version | Text Only | Print | Product List | Glossary Off
Versions: 1 2 3 4 5 6 7 8 9 10 11 12

037
FTUS43 KMPX 201735
TAFRNH
TAF
KRNH 201735Z 2018/2118 02007KT P6SM BKN120
     FM210500 30004KT P6SM FEW200
     FM211200 34009KT P6SM SKC=

USA.gov is the U.S. government's official web portal to all federal, state and local government web resources and services.